createdAt,value
2023-01-23T00:00:15.670Z,9.77
2023-01-23T00:02:43.628Z,11.97
2023-01-23T00:05:11.867Z,9.07
2023-01-23T00:07:41.248Z,10.87
2023-01-23T00:10:09.845Z,15.90
2023-01-23T00:12:37.998Z,11.40
2023-01-23T00:15:06.803Z,10.10
2023-01-23T00:17:34.787Z,10.10
2023-01-23T00:20:02.868Z,9.10
2023-01-23T00:22:30.940Z,10.97
2023-01-23T00:25:00.311Z,11.33
2023-01-23T00:27:28.311Z,9.37
2023-01-23T00:29:56.406Z,10.17
2023-01-23T00:32:24.491Z,9.07
2023-01-23T00:34:52.454Z,10.93
2023-01-23T00:37:20.426Z,9.90
2023-01-23T00:39:51.031Z,10.20
2023-01-23T00:42:20.373Z,11.30
2023-01-23T00:44:48.411Z,10.00
2023-01-23T00:47:16.372Z,10.30
2023-01-23T00:49:44.340Z,10.50
2023-01-23T00:52:12.330Z,8.30
2023-01-23T00:54:40.263Z,10.13
2023-01-23T00:57:08.249Z,9.60
2023-01-23T00:59:37.634Z,9.53
2023-01-23T01:02:05.626Z,9.73
2023-01-23T01:04:33.588Z,8.00
2023-01-23T01:07:01.541Z,8.83
2023-01-23T01:09:29.524Z,9.50
2023-01-23T01:11:57.527Z,9.63
2023-01-23T01:14:25.526Z,9.17
2023-01-23T01:16:54.859Z,9.40
2023-01-23T01:19:22.876Z,9.47
2023-01-23T01:21:50.809Z,11.70
2023-01-23T01:24:18.830Z,10.90
2023-01-23T01:26:46.789Z,11.57
2023-01-23T01:29:14.777Z,9.93
2023-01-23T01:31:42.852Z,10.00
2023-01-23T01:34:13.009Z,10.10
2023-01-23T01:36:41.083Z,9.40
2023-01-23T01:39:09.046Z,8.87
2023-01-23T01:41:37.109Z,7.73
2023-01-23T01:44:05.224Z,9.07
2023-01-23T01:46:33.611Z,9.60
2023-01-23T01:49:03.897Z,11.33
2023-01-23T01:51:36.309Z,9.97
2023-01-23T01:54:07.027Z,12.33
2023-01-23T01:56:37.777Z,8.97
2023-01-23T01:59:06.414Z,10.70
2023-01-23T02:01:34.387Z,11.30
2023-01-23T02:04:02.700Z,9.90
2023-01-23T02:06:30.739Z,8.73
2023-01-23T02:09:04.215Z,7.83
2023-01-23T02:11:32.221Z,9.50
2023-01-23T02:14:00.200Z,11.73
2023-01-23T02:16:30.373Z,9.27
2023-01-23T02:19:00.745Z,7.47
2023-01-23T02:21:29.226Z,9.73
2023-01-23T02:24:15.799Z,8.53
2023-01-23T02:26:46.211Z,8.23
2023-01-23T02:29:14.838Z,8.40
2023-01-23T02:31:45.405Z,8.93
2023-01-23T02:34:14.023Z,9.93
2023-01-23T02:36:44.122Z,8.40
2023-01-23T02:39:13.839Z,7.87
2023-01-23T02:41:42.395Z,9.30
2023-01-23T02:44:14.122Z,7.97
2023-01-23T02:46:42.160Z,10.23
2023-01-23T02:49:10.211Z,11.00
2023-01-23T02:51:38.426Z,8.20
2023-01-23T02:54:06.610Z,8.63
2023-01-23T02:56:35.056Z,8.50
2023-01-23T02:59:20.695Z,8.87
2023-01-23T03:01:50.079Z,8.67
2023-01-23T03:04:18.106Z,10.47
2023-01-23T03:06:46.078Z,8.33
2023-01-23T03:09:15.995Z,9.77
2023-01-23T03:11:45.008Z,8.83
2023-01-23T03:14:14.047Z,8.77
2023-01-23T03:16:43.069Z,9.23
2023-01-23T03:19:12.512Z,9.53
2023-01-23T03:21:41.266Z,8.83
2023-01-23T03:24:09.795Z,10.53
2023-01-23T03:26:39.292Z,8.00
2023-01-23T03:29:24.709Z,9.83
2023-01-23T03:31:53.103Z,9.00
2023-01-23T03:34:23.247Z,8.27
2023-01-23T03:36:51.258Z,9.43
2023-01-23T03:39:36.624Z,7.60
2023-01-23T03:42:04.665Z,7.43
2023-01-23T03:44:32.625Z,9.43
2023-01-23T03:47:00.639Z,9.97
2023-01-23T03:49:30.071Z,8.23
2023-01-23T03:51:58.066Z,7.40
2023-01-23T03:54:26.174Z,8.97
2023-01-23T03:56:54.161Z,10.03
2023-01-23T03:59:22.210Z,7.20
2023-01-23T04:01:50.369Z,8.77
2023-01-23T04:04:18.321Z,9.77
2023-01-23T04:06:47.700Z,11.43
2023-01-23T04:09:15.652Z,10.33
2023-01-23T04:11:43.586Z,8.23
2023-01-23T04:14:11.582Z,10.17
2023-01-23T04:16:39.647Z,8.57
2023-01-23T04:19:07.732Z,9.03
2023-01-23T04:21:35.688Z,9.97
2023-01-23T04:24:05.144Z,7.37
2023-01-23T04:26:35.222Z,8.03
2023-01-23T04:29:03.399Z,8.07
2023-01-23T04:31:31.434Z,9.33
2023-01-23T04:33:59.519Z,11.53
2023-01-23T04:36:27.472Z,8.50
2023-01-23T04:38:55.396Z,8.90
2023-01-23T04:41:25.537Z,8.23
2023-01-23T04:43:53.490Z,8.50
2023-01-23T04:46:21.567Z,8.50
2023-01-23T04:48:49.559Z,9.67
2023-01-23T04:51:17.563Z,10.13
2023-01-23T04:53:45.597Z,11.13
2023-01-23T04:56:13.575Z,9.67
2023-01-23T04:58:42.929Z,9.53
2023-01-23T05:01:11.218Z,11.03
2023-01-23T05:03:39.187Z,8.37
2023-01-23T05:06:07.492Z,8.57
2023-01-23T05:08:35.621Z,10.83
2023-01-23T05:11:03.580Z,8.97
2023-01-23T05:13:31.547Z,10.27
2023-01-23T05:16:00.979Z,9.30
2023-01-23T05:18:28.933Z,8.50
2023-01-23T05:20:56.862Z,8.83
2023-01-23T05:23:24.879Z,7.83
2023-01-23T05:25:52.806Z,7.47
2023-01-23T05:28:20.756Z,7.17
2023-01-23T05:30:48.829Z,10.10
2023-01-23T05:33:18.468Z,8.93
2023-01-23T05:35:46.421Z,11.40
2023-01-23T05:38:16.377Z,9.47
2023-01-23T05:40:44.374Z,8.60
2023-01-23T05:43:14.866Z,8.93
2023-01-23T05:45:42.819Z,10.00
2023-01-23T05:48:10.953Z,10.20
2023-01-23T05:50:40.491Z,10.17
2023-01-23T05:53:08.582Z,9.07
2023-01-23T05:55:38.666Z,9.67
2023-01-23T05:58:06.628Z,7.37
2023-01-23T06:00:35.234Z,9.07
2023-01-23T06:03:03.268Z,8.77
2023-01-23T06:05:31.328Z,8.80
2023-01-23T06:08:00.738Z,10.80
2023-01-23T06:10:28.774Z,7.17
2023-01-23T06:12:56.742Z,10.03
2023-01-23T06:15:24.781Z,10.93
2023-01-23T06:17:52.877Z,9.73
2023-01-23T06:20:21.582Z,9.10
2023-01-23T06:22:49.782Z,8.27
2023-01-23T06:25:20.893Z,9.33
2023-01-23T06:27:49.308Z,8.70
2023-01-23T06:30:17.409Z,7.73
2023-01-23T06:32:45.597Z,7.40
2023-01-23T06:35:13.661Z,8.77
2023-01-23T06:37:41.669Z,10.63
2023-01-23T06:40:13.338Z,9.60
2023-01-23T06:42:43.208Z,9.70
2023-01-23T06:45:12.010Z,8.40
2023-01-23T06:47:40.042Z,9.20
2023-01-23T06:50:08.474Z,9.57
2023-01-23T06:52:36.435Z,7.63
2023-01-23T06:55:04.457Z,9.43
2023-01-23T06:57:32.577Z,7.67
2023-01-23T07:00:01.943Z,8.07
2023-01-23T07:02:29.972Z,9.53
2023-01-23T07:04:58.476Z,9.67
2023-01-23T07:07:26.635Z,12.23
2023-01-23T07:09:54.553Z,8.13
2023-01-23T07:12:22.518Z,9.47
2023-01-23T07:14:50.499Z,10.13
2023-01-23T07:17:19.918Z,8.70
2023-01-23T07:19:47.868Z,8.17
2023-01-23T07:22:18.393Z,8.70
2023-01-23T07:24:46.344Z,8.77
2023-01-23T07:27:14.402Z,8.13
2023-01-23T07:29:42.420Z,8.87
2023-01-23T07:32:11.298Z,10.40
2023-01-23T07:34:40.965Z,9.00
2023-01-23T07:37:09.034Z,9.60
2023-01-23T07:39:36.992Z,7.67
2023-01-23T07:42:05.045Z,8.90
2023-01-23T07:44:33.035Z,10.80
2023-01-23T07:47:00.946Z,7.07
2023-01-23T07:49:28.891Z,7.63
2023-01-23T07:51:58.272Z,9.70
2023-01-23T07:54:26.236Z,11.80
2023-01-23T07:56:54.210Z,10.20
2023-01-23T07:59:22.173Z,7.63
2023-01-23T08:01:52.645Z,8.30
2023-01-23T08:04:20.907Z,8.43
2023-01-23T08:06:48.904Z,7.93
2023-01-23T08:09:18.244Z,10.83
2023-01-23T08:11:46.246Z,12.70
2023-01-23T08:14:14.163Z,8.77
2023-01-23T08:16:42.155Z,8.83
2023-01-23T08:19:10.264Z,9.73
2023-01-23T08:21:38.254Z,8.87
2023-01-23T08:24:06.601Z,8.03
2023-01-23T08:26:35.940Z,11.40
2023-01-23T08:29:03.992Z,9.43
2023-01-23T08:31:32.123Z,8.50
2023-01-23T08:34:00.189Z,13.80
2023-01-23T08:36:28.117Z,9.33
2023-01-23T08:38:56.106Z,10.13
2023-01-23T08:41:24.527Z,9.27
2023-01-23T08:43:55.199Z,8.17
2023-01-23T08:46:23.192Z,7.27
2023-01-23T08:48:51.214Z,7.70
2023-01-23T08:51:19.195Z,8.47
2023-01-23T08:53:47.207Z,8.03
2023-01-23T08:56:17.045Z,8.30
2023-01-23T08:58:48.159Z,11.07
2023-01-23T09:01:18.641Z,9.10
2023-01-23T09:03:46.815Z,8.37
2023-01-23T09:06:15.544Z,8.17
2023-01-23T09:08:43.500Z,10.40
2023-01-23T09:11:12.965Z,6.90
2023-01-23T09:13:40.984Z,9.27
2023-01-23T09:16:09.633Z,8.43
2023-01-23T09:18:39.403Z,9.70
2023-01-23T09:21:08.826Z,9.10
2023-01-23T09:23:37.163Z,9.20
2023-01-23T09:26:05.689Z,8.50
2023-01-23T09:28:33.792Z,7.83
2023-01-23T09:31:04.342Z,9.40
2023-01-23T09:33:32.306Z,7.77
2023-01-23T09:36:01.704Z,7.27
2023-01-23T09:38:29.643Z,8.70
2023-01-23T09:40:58.644Z,7.90
2023-01-23T09:43:29.724Z,8.43
2023-01-23T09:46:04.379Z,7.70
2023-01-23T09:48:35.348Z,7.50
2023-01-23T09:51:08.188Z,10.97
2023-01-23T09:53:38.663Z,13.20
2023-01-23T09:56:14.670Z,6.07
2023-01-23T09:58:44.959Z,9.00
2023-01-23T10:01:13.731Z,8.53
2023-01-23T10:03:42.090Z,8.83
2023-01-23T10:06:19.818Z,9.30
2023-01-23T10:08:55.741Z,10.23
2023-01-23T10:11:27.337Z,9.00
2023-01-23T10:14:10.904Z,7.07
2023-01-23T10:16:50.344Z,6.50
2023-01-23T10:19:24.008Z,8.27
2023-01-23T10:21:56.917Z,6.77
2023-01-23T10:24:40.222Z,8.40
2023-01-23T10:27:17.058Z,12.00
2023-01-23T10:29:46.478Z,7.27
2023-01-23T10:32:19.799Z,6.63
2023-01-23T10:34:50.571Z,7.57
2023-01-23T10:37:22.987Z,8.70
2023-01-23T10:39:52.171Z,6.47
2023-01-23T10:42:22.170Z,9.33
2023-01-23T10:44:50.199Z,6.93
2023-01-23T10:47:22.108Z,7.97
2023-01-23T10:49:50.057Z,7.27
2023-01-23T10:52:31.865Z,6.10
2023-01-23T10:55:00.973Z,7.87
2023-01-23T10:57:29.852Z,9.33
2023-01-23T11:00:00.731Z,7.70
2023-01-23T11:02:29.899Z,9.33
2023-01-23T11:04:58.022Z,7.40
2023-01-23T11:07:27.005Z,9.57
2023-01-23T11:09:57.865Z,6.47
2023-01-23T11:12:26.782Z,9.03
2023-01-23T11:15:12.637Z,6.00
2023-01-23T11:17:41.039Z,7.30
2023-01-23T11:20:13.293Z,5.37
2023-01-23T11:22:42.346Z,7.43
2023-01-23T11:25:30.385Z,5.43
2023-01-23T11:27:59.651Z,8.10
2023-01-23T11:30:35.903Z,5.97
2023-01-23T11:33:11.647Z,6.90
2023-01-23T11:35:46.802Z,6.80
2023-01-23T11:38:19.772Z,5.43
2023-01-23T11:40:54.031Z,8.63
2023-01-23T11:43:22.184Z,7.40
2023-01-23T11:45:58.139Z,6.43
2023-01-23T11:48:32.427Z,7.00
2023-01-23T11:51:05.119Z,9.90
2023-01-23T11:53:42.209Z,5.90
2023-01-23T11:56:35.827Z,7.53
2023-01-23T11:59:12.492Z,6.97
2023-01-23T12:01:49.325Z,7.33
2023-01-23T12:04:34.863Z,8.17
2023-01-23T12:07:08.471Z,6.57
2023-01-23T12:09:42.498Z,6.23
2023-01-23T12:12:15.283Z,6.47
2023-01-23T12:14:47.781Z,5.37
2023-01-23T12:17:19.204Z,4.90
2023-01-23T12:20:07.813Z,5.77
2023-01-23T12:22:42.455Z,5.83
2023-01-23T12:25:19.778Z,7.67
2023-01-23T12:27:52.923Z,7.10
2023-01-23T12:30:44.564Z,7.00
2023-01-23T12:33:27.026Z,4.37
2023-01-23T12:35:59.444Z,7.00
2023-01-23T12:38:31.661Z,6.27
2023-01-23T12:41:13.665Z,4.83
2023-01-23T12:43:47.164Z,6.47
2023-01-23T12:46:17.838Z,5.53
2023-01-23T12:48:47.550Z,6.13
2023-01-23T12:51:18.305Z,7.30
2023-01-23T12:53:46.955Z,5.73
2023-01-23T12:56:16.777Z,10.47
2023-01-23T12:58:48.230Z,8.07
2023-01-23T13:01:25.186Z,8.07
2023-01-23T13:03:59.927Z,5.70
2023-01-23T13:06:41.416Z,4.90
2023-01-23T13:09:18.127Z,5.37
2023-01-23T13:11:51.894Z,4.80
2023-01-23T13:14:23.353Z,6.43
2023-01-23T13:16:53.845Z,6.77
2023-01-23T13:19:41.408Z,10.17
2023-01-23T13:22:22.445Z,9.27
2023-01-23T13:25:17.737Z,6.53
2023-01-23T13:27:51.404Z,7.73
2023-01-23T13:30:38.002Z,9.90
2023-01-23T13:36:13.383Z,7.00
2023-01-23T13:38:42.334Z,9.93
2023-01-23T13:41:29.554Z,6.37
2023-01-23T13:44:04.130Z,5.70
2023-01-23T13:46:37.421Z,6.47
2023-01-23T14:22:37.853Z,12.73
2023-01-23T14:25:15.394Z,5.03
2023-01-23T14:27:52.750Z,4.97
2023-01-23T14:30:27.142Z,5.00
2023-01-23T14:32:55.665Z,6.50
2023-01-23T14:35:25.498Z,4.40
2023-01-23T14:37:55.560Z,4.43
2023-01-23T14:40:28.155Z,6.17
2023-01-23T14:42:59.158Z,10.37
2023-01-23T14:45:32.029Z,8.13
2023-01-23T14:48:05.914Z,5.10
2023-01-23T14:50:34.814Z,6.70
2023-01-23T14:53:05.264Z,4.20
2023-01-23T14:55:35.860Z,5.10
2023-01-23T14:58:05.096Z,8.67
2023-01-23T15:00:33.411Z,3.77
2023-01-23T15:03:01.397Z,4.90
2023-01-23T15:05:29.767Z,15.23
2023-01-23T15:07:59.036Z,4.43
2023-01-23T15:10:29.391Z,6.50
2023-01-23T15:12:58.813Z,4.47
2023-01-23T15:15:27.500Z,5.80
2023-01-23T15:17:56.435Z,5.40
2023-01-23T15:20:32.176Z,6.20
2023-01-23T15:23:14.667Z,5.80
2023-01-23T15:25:45.257Z,6.93
2023-01-23T15:28:31.848Z,5.60
2023-01-23T15:30:59.951Z,5.73
2023-01-23T15:33:29.873Z,7.60
2023-01-23T15:36:04.532Z,6.43
2023-01-23T15:38:32.707Z,10.60
2023-01-23T15:41:02.131Z,4.20
2023-01-23T15:43:30.253Z,6.93
2023-01-23T15:46:01.834Z,4.73
2023-01-23T15:48:29.847Z,4.53
2023-01-23T15:50:59.077Z,5.27
2023-01-23T15:53:27.051Z,5.77
2023-01-23T15:55:55.047Z,4.63
2023-01-23T15:58:24.443Z,5.03
2023-01-23T16:00:52.413Z,5.90
2023-01-23T16:03:20.386Z,5.33
2023-01-23T16:05:48.453Z,6.77
2023-01-23T16:08:19.657Z,7.43
2023-01-23T16:10:48.130Z,8.60
2023-01-23T16:13:16.147Z,8.20
2023-01-23T16:15:45.508Z,6.50
2023-01-23T16:18:13.748Z,6.70
2023-01-23T16:20:43.893Z,7.90
2023-01-23T16:23:15.467Z,9.63
2023-01-23T16:25:45.975Z,6.30
2023-01-23T16:28:14.793Z,7.77
2023-01-23T16:30:42.824Z,11.47
2023-01-23T16:33:12.224Z,6.53
2023-01-23T16:35:40.749Z,6.77
2023-01-23T16:38:08.998Z,7.13
2023-01-23T16:40:37.090Z,8.07
2023-01-23T16:43:05.052Z,8.30
2023-01-23T16:45:33.732Z,6.17
2023-01-23T16:48:01.684Z,9.03
2023-01-23T16:50:34.399Z,6.77
2023-01-23T16:53:04.068Z,10.10
2023-01-23T16:55:35.117Z,6.07
2023-01-23T16:58:04.036Z,7.03
2023-01-23T17:00:35.419Z,7.10
2023-01-23T17:03:05.777Z,8.47
2023-01-23T17:05:35.160Z,9.07
2023-01-23T17:08:03.912Z,9.60
2023-01-23T17:10:45.534Z,6.47
2023-01-23T17:13:14.766Z,8.60
2023-01-23T17:15:42.755Z,6.33
2023-01-23T17:18:17.629Z,8.03
2023-01-23T17:20:47.099Z,7.13
2023-01-23T17:23:15.490Z,9.17
2023-01-23T17:25:59.913Z,8.40
2023-01-23T17:28:28.591Z,5.87
2023-01-23T17:30:58.148Z,8.80
2023-01-23T17:33:28.793Z,8.00
2023-01-23T17:35:58.220Z,6.63
2023-01-23T17:38:26.859Z,7.50
2023-01-23T17:40:55.063Z,8.73
2023-01-23T17:43:23.119Z,7.43
2023-01-23T17:45:52.579Z,7.87
2023-01-23T17:48:26.208Z,10.50
2023-01-23T17:50:54.297Z,8.87
2023-01-23T17:53:23.993Z,7.37
2023-01-23T17:55:53.038Z,7.43
2023-01-23T17:58:21.679Z,7.63
2023-01-23T18:00:51.066Z,7.20
2023-01-23T18:03:21.786Z,7.93
2023-01-23T18:05:49.834Z,6.37
2023-01-23T18:08:18.325Z,8.03
2023-01-23T18:10:48.738Z,9.40
2023-01-23T18:13:20.065Z,8.93
2023-01-23T18:15:55.004Z,8.00
2023-01-23T18:18:28.646Z,7.03
2023-01-23T18:20:57.314Z,8.30
2023-01-23T18:23:25.915Z,7.47
2023-01-23T18:25:59.604Z,10.23
2023-01-23T18:28:28.252Z,9.23
2023-01-23T18:30:59.423Z,8.70
2023-01-23T18:33:41.051Z,10.03
2023-01-23T18:36:18.660Z,9.60
2023-01-23T18:38:57.019Z,7.70
2023-01-23T18:41:27.243Z,12.87
2023-01-23T18:43:56.796Z,12.90
2023-01-23T18:46:25.678Z,8.30
2023-01-23T18:48:54.053Z,10.27
2023-01-23T18:51:28.204Z,12.50
2023-01-23T18:54:00.186Z,8.87
2023-01-23T18:56:35.622Z,10.70
2023-01-23T18:59:12.219Z,10.47
2023-01-23T19:01:44.871Z,8.33
2023-01-23T19:04:15.331Z,10.70
2023-01-23T19:06:44.876Z,13.83
2023-01-23T19:09:17.174Z,8.73
2023-01-23T19:11:53.200Z,10.47
2023-01-23T19:14:25.955Z,10.53
2023-01-23T19:16:56.633Z,10.90
2023-01-23T19:19:29.224Z,10.03
2023-01-23T19:21:59.903Z,9.87
2023-01-23T19:24:28.476Z,9.23
2023-01-23T19:26:58.370Z,9.67
2023-01-23T19:29:26.498Z,14.40
2023-01-23T19:32:04.236Z,12.27
2023-01-23T19:34:33.539Z,8.27
2023-01-23T19:37:01.541Z,8.53
2023-01-23T19:39:29.562Z,8.33
2023-01-23T19:41:59.404Z,10.00
2023-01-23T19:44:29.121Z,13.70
2023-01-23T19:46:57.197Z,8.43
2023-01-23T19:49:26.075Z,8.47
2023-01-23T19:51:54.001Z,23.90
2023-01-23T19:54:24.155Z,19.73
2023-01-23T19:56:52.393Z,15.80
2023-01-23T19:59:22.355Z,18.80
2023-01-23T20:01:51.790Z,19.07
2023-01-23T20:04:20.923Z,36.20
2023-01-23T20:06:51.662Z,19.57
2023-01-23T20:09:19.894Z,16.73
2023-01-23T20:11:48.048Z,23.63
2023-01-23T20:14:16.097Z,20.30
2023-01-23T20:16:45.692Z,13.70
2023-01-23T20:19:14.374Z,16.93
2023-01-23T20:21:42.422Z,15.60
2023-01-23T20:24:10.457Z,9.30
2023-01-23T20:26:38.904Z,11.87
2023-01-23T20:29:07.115Z,8.80
2023-01-23T20:31:35.777Z,12.40
2023-01-23T20:34:05.415Z,11.13
2023-01-23T20:36:33.352Z,12.80
2023-01-23T20:39:01.368Z,10.10
2023-01-23T20:41:29.383Z,10.87
2023-01-23T20:43:57.308Z,11.13
2023-01-23T20:46:27.035Z,9.87
2023-01-23T20:48:55.078Z,10.10
2023-01-23T20:51:24.462Z,12.07
2023-01-23T20:53:52.520Z,10.67
2023-01-23T20:56:21.644Z,10.77
2023-01-23T20:59:07.641Z,9.17
2023-01-23T21:01:50.453Z,11.20
2023-01-23T21:04:18.505Z,11.00
2023-01-23T21:06:48.029Z,9.10
2023-01-23T21:09:16.315Z,10.53
2023-01-23T21:11:44.320Z,9.17
2023-01-23T21:14:12.297Z,8.40
2023-01-23T21:16:40.257Z,12.83
2023-01-23T21:19:08.412Z,11.83
2023-01-23T21:21:36.396Z,11.33
2023-01-23T21:24:05.911Z,11.97
2023-01-23T21:26:35.228Z,9.00
2023-01-23T21:29:03.358Z,11.17
2023-01-23T21:31:33.117Z,9.90
2023-01-23T21:34:01.670Z,10.27
2023-01-23T21:36:29.780Z,10.07
2023-01-23T21:38:58.850Z,11.13
2023-01-23T21:41:28.711Z,10.30
2023-01-23T21:43:56.671Z,10.57
2023-01-23T21:46:24.727Z,10.30
2023-01-23T21:48:53.262Z,12.00
2023-01-23T21:51:22.007Z,9.87
2023-01-23T21:53:50.736Z,12.03
2023-01-23T21:56:19.427Z,10.40
2023-01-23T21:58:49.409Z,12.00
2023-01-23T22:01:33.618Z,12.10
2023-01-23T22:04:02.714Z,14.03
2023-01-23T22:06:30.991Z,15.63
2023-01-23T22:08:59.483Z,10.23
2023-01-23T22:11:27.425Z,9.20
2023-01-23T22:13:57.119Z,13.77
2023-01-23T22:16:35.961Z,12.17
2023-01-23T22:19:14.786Z,11.77
2023-01-23T22:21:43.888Z,11.97
2023-01-23T22:24:11.930Z,10.30
2023-01-23T22:26:40.048Z,10.67
2023-01-23T22:29:09.826Z,9.97
2023-01-23T22:31:37.861Z,10.77
2023-01-23T22:34:05.908Z,11.87
2023-01-23T22:36:33.819Z,10.60
2023-01-23T22:39:01.802Z,14.23
2023-01-23T22:41:29.831Z,15.00
2023-01-23T22:43:59.345Z,13.70
2023-01-23T22:46:29.299Z,15.50
2023-01-23T22:48:57.290Z,12.67
2023-01-23T22:51:26.005Z,11.70
2023-01-23T22:53:54.239Z,11.77
2023-01-23T22:56:22.461Z,12.03
2023-01-23T22:58:51.096Z,12.20
2023-01-23T23:01:19.569Z,10.20
2023-01-23T23:03:48.963Z,11.70
2023-01-23T23:06:17.902Z,12.87
2023-01-23T23:08:47.620Z,13.53
2023-01-23T23:11:17.022Z,12.13
2023-01-23T23:13:45.333Z,13.70
2023-01-23T23:16:14.665Z,15.10
2023-01-23T23:18:42.884Z,13.27
2023-01-23T23:21:15.403Z,9.37
2023-01-23T23:23:43.457Z,15.30
2023-01-23T23:26:11.875Z,12.80
2023-01-23T23:28:40.253Z,10.53
2023-01-23T23:31:08.768Z,13.83
2023-01-23T23:33:37.058Z,12.87
2023-01-23T23:36:05.127Z,12.53
2023-01-23T23:38:34.543Z,10.30
2023-01-23T23:41:04.419Z,14.90
2023-01-23T23:43:32.648Z,12.67
2023-01-23T23:46:01.529Z,10.67
2023-01-23T23:48:30.300Z,15.30
2023-01-23T23:51:00.455Z,15.83
2023-01-23T23:53:28.656Z,12.77
2023-01-23T23:55:58.081Z,15.90
2023-01-23T23:58:26.124Z,12.67
